Time;durP1;ratioP1;P1;durP2;ratioP2;P2;SDS_P1;SDS_P2;PMS_P1;PMS_P2;Temp;Humidity;BMP_temperature;BMP_pressure;BME280_temperature;BME280_humidity;BME280_pressure;Samples;Min_cycle;Max_cycle;Signal;HPM_P1;HPM_P2
2021/10/08 00:00:34;;;;;;;2.80;1.63;;;;;;;9.90;100.00;95458.84;5085920;28;20068;-66
2021/10/08 00:03:00;;;;;;;2.25;1.52;;;;;;;9.94;100.00;95467.84;5091965;28;20571;-66
2021/10/08 00:05:27;;;;;;;8.88;3.28;;;;;;;9.90;100.00;95474.47;5085236;28;20039;-66
2021/10/08 00:07:54;;;;;;;2.63;1.90;;;;;;;9.90;100.00;95469.25;5088593;28;20086;-64
2021/10/08 00:10:23;;;;;;;3.28;1.83;;;;;;;9.87;100.00;95472.31;5086513;28;20836;-65
2021/10/08 00:12:50;;;;;;;3.75;2.20;;;;;;;9.87;100.00;95461.91;5089895;28;20039;-65
2021/10/08 00:15:17;;;;;;;3.42;1.95;;;;;;;9.92;100.00;95456.84;5090304;28;20079;-65
2021/10/08 00:17:43;;;;;;;6.60;2.40;;;;;;;9.90;100.00;95461.47;5086425;28;20040;-65
2021/10/08 00:20:11;;;;;;;4.05;2.20;;;;;;;9.92;100.00;95462.03;5086019;28;20062;-65
2021/10/08 00:22:39;;;;;;;4.03;1.30;;;;;;;9.91;100.00;95450.06;5086464;28;20055;-65
2021/10/08 00:25:06;;;;;;;3.60;2.03;;;;;;;9.92;100.00;95452.44;5089787;28;20088;-66
2021/10/08 00:27:33;;;;;;;4.43;2.30;;;;;;;9.82;100.00;95446.91;5083913;28;20039;-67
2021/10/08 00:29:59;;;;;;;2.55;1.73;;;;;;;9.90;100.00;95466.66;5079778;28;20047;-66
2021/10/08 00:32:26;;;;;;;2.50;1.27;;;;;;;9.89;100.00;95460.66;5074349;28;20047;-64
2021/10/08 00:34:53;;;;;;;3.25;1.95;;;;;;;9.94;100.00;95473.06;5087547;28;20109;-65
2021/10/08 00:37:20;;;;;;;2.47;1.27;;;;;;;9.94;100.00;95467.84;5070864;28;20053;-65
2021/10/08 00:39:47;;;;;;;2.05;1.10;;;;;;;9.95;100.00;95469.44;5066470;28;20040;-65
2021/10/08 00:42:19;;;;;;;2.60;1.58;;;;;;;10.00;100.00;95461.78;5068723;28;20074;-65
2021/10/08 00:44:46;;;;;;;2.97;1.52;;;;;;;9.94;100.00;95457.44;5064773;28;20509;-65
2021/10/08 00:47:14;;;;;;;1.90;1.27;;;;;;;9.96;100.00;95460.63;5065902;28;20051;-65
2021/10/08 00:49:41;;;;;;;1.42;0.85;;;;;;;9.88;100.00;95453.06;5066445;28;20040;-65
2021/10/08 00:52:08;;;;;;;2.03;1.30;;;;;;;9.97;100.00;95462.22;5072905;28;20050;-65
2021/10/08 00:54:35;;;;;;;1.52;0.88;;;;;;;9.93;100.00;95466.25;5075428;28;20048;-65
2021/10/08 00:57:02;;;;;;;4.05;1.50;;;;;;;9.89;100.00;95454.69;5065517;28;20039;-65
2021/10/08 00:59:33;;;;;;;1.85;1.20;;;;;;;9.93;100.00;95455.84;5072892;28;20123;-64
2021/10/08 01:02:01;;;;;;;2.90;1.27;;;;;;;9.85;100.00;95450.88;5083173;28;20051;-65
2021/10/08 01:04:28;;;;;;;0.80;0.60;;;;;;;9.75;100.00;95439.13;5086637;28;20039;-65
2021/10/08 01:06:55;;;;;;;1.95;0.70;;;;;;;9.84;100.00;95454.50;5070097;28;20066;-65
2021/10/08 01:09:22;;;;;;;1.17;0.50;;;;;;;9.89;100.00;95454.69;5066848;28;20044;-65
2021/10/08 01:11:49;;;;;;;1.20;0.63;;;;;;;9.87;100.00;95446.28;5081218;28;20440;-66
2021/10/08 01:14:20;;;;;;;0.75;0.50;;;;;;;9.85;100.00;95437.88;5065354;28;20052;-65
2021/10/08 01:16:51;;;;;;;0.80;0.50;;;;;;;9.84;100.00;95449.31;5080812;28;20496;-65
2021/10/08 01:19:18;;;;;;;1.42;0.75;;;;;;;9.84;100.00;95436.28;5080811;28;20524;-65
2021/10/08 01:21:53;;;;;;;0.80;0.50;;;;;;;9.90;100.00;95445.84;5065370;28;20106;-66
2021/10/08 01:24:20;;;;;;;0.60;0.60;;;;;;;9.98;100.00;95443.00;5084449;28;20047;-65
2021/10/08 01:26:47;;;;;;;1.63;0.70;;;;;;;9.87;100.00;95451.50;5085231;28;20050;-65
2021/10/08 01:29:14;;;;;;;0.80;0.50;;;;;;;9.87;100.00;95456.69;5084909;28;20520;-65
2021/10/08 01:31:42;;;;;;;0.68;0.47;;;;;;;9.90;100.00;95461.47;5080189;28;20048;-65
2021/10/08 01:34:10;;;;;;;1.10;0.68;;;;;;;9.81;100.00;95462.72;5080546;28;20079;-65
2021/10/08 01:36:47;;;;;;;0.95;0.80;;;;;;;9.84;100.00;95477.91;5080209;28;20110;-65
2021/10/08 01:39:14;;;;;;;0.82;0.60;;;;;;;9.85;100.00;95463.88;5082127;28;20040;-65
2021/10/08 01:41:41;;;;;;;0.80;0.45;;;;;;;9.87;100.00;95472.31;5082775;28;20044;-66
2021/10/08 01:44:15;;;;;;;2.20;0.60;;;;;;;9.79;100.00;95456.94;5064699;28;20056;-65
2021/10/08 01:46:42;;;;;;;1.02;0.73;;;;;;;9.79;100.00;95449.13;5074566;28;20424;-65
2021/10/08 01:49:10;;;;;;;2.60;0.70;;;;;;;9.79;100.00;95449.13;5076483;28;20417;-65
2021/10/08 01:51:37;;;;;;;1.17;0.50;;;;;;;9.81;100.00;95447.13;5083003;28;20048;-65
2021/10/08 01:54:05;;;;;;;1.02;0.65;;;;;;;9.72;100.00;95434.38;5070341;28;20052;-65
2021/10/08 01:56:34;;;;;;;1.27;0.80;;;;;;;9.72;100.00;95439.56;5071007;28;20050;-65
2021/10/08 01:59:03;;;;;;;1.70;0.68;;;;;;;9.66;100.00;95448.19;5075853;28;20106;-65
2021/10/08 02:01:33;;;;;;;1.50;0.82;;;;;;;9.73;100.00;95438.56;5063886;28;20082;-65
2021/10/08 02:04:07;;;;;;;1.20;0.68;;;;;;;9.70;100.00;95431.16;5078958;28;20052;-65
2021/10/08 02:06:34;;;;;;;1.17;0.47;;;;;;;9.71;100.00;95427.56;5065052;28;20036;-66
2021/10/08 02:09:04;;;;;;;0.80;0.50;;;;;;;9.67;100.00;95431.59;5082500;28;20113;-65
2021/10/08 02:11:33;;;;;;;1.35;0.60;;;;;;;9.65;100.00;95427.59;5074215;28;20047;-65
2021/10/08 02:14:00;;;;;;;0.75;0.50;;;;;;;9.68;100.00;95422.78;5067244;28;20483;-65
2021/10/08 02:16:27;;;;;;;1.15;0.68;;;;;;;9.77;100.00;95426.72;5088744;28;20048;-65
2021/10/08 02:19:00;;;;;;;1.25;0.55;;;;;;;9.67;100.00;95422.97;5081837;28;20079;-65
2021/10/08 02:21:29;;;;;;;1.10;0.85;;;;;;;9.69;100.00;95419.19;5064032;28;20055;-65
2021/10/08 02:23:57;;;;;;;0.90;0.50;;;;;;;9.60;100.00;95415.25;5064384;28;20102;-65
2021/10/08 02:26:25;;;;;;;1.00;0.70;;;;;;;9.66;100.00;95435.19;5083131;28;20511;-65
2021/10/08 02:28:52;;;;;;;0.75;0.50;;;;;;;9.71;100.00;95442.38;5084062;28;20513;-65
2021/10/08 02:31:26;;;;;;;0.55;0.38;;;;;;;9.57;100.00;95426.06;5074375;28;20143;-65
2021/10/08 02:33:53;;;;;;;1.17;0.68;;;;;;;9.72;100.00;95439.56;5078421;28;20528;-65
2021/10/08 02:36:19;;;;;;;0.52;0.40;;;;;;;9.78;100.00;95437.94;5081069;28;21134;-65
2021/10/08 02:38:46;;;;;;;0.68;0.43;;;;;;;9.80;100.00;95437.72;5082123;28;20051;-65
2021/10/08 02:41:13;;;;;;;1.30;1.00;;;;;;;9.82;100.00;95433.09;5070464;28;20045;-65
2021/10/08 02:43:40;;;;;;;1.05;0.63;;;;;;;9.85;100.00;95435.28;5082814;28;20036;-65
2021/10/08 02:46:08;;;;;;;2.10;1.27;;;;;;;9.83;100.00;95435.50;5100452;28;20032;-66
2021/10/08 02:48:36;;;;;;;1.40;0.70;;;;;;;9.83;100.00;95439.88;5084848;28;20036;-65
2021/10/08 02:51:04;;;;;;;0.50;0.20;;;;;;;9.80;100.00;95440.34;5085338;28;20032;-65
2021/10/08 02:53:33;;;;;;;0.70;0.22;;;;;;;9.71;100.00;95432.78;5072248;28;20044;-65
2021/10/08 02:56:00;;;;;;;0.68;0.45;;;;;;;9.74;100.00;95437.56;5067650;28;20043;-66
2021/10/08 02:58:28;;;;;;;2.53;1.70;;;;;;;9.72;100.00;95430.97;5080741;28;20051;-66
2021/10/08 03:00:56;;;;;;;0.70;0.30;;;;;;;9.67;100.00;95425.59;5079861;28;20528;-65
2021/10/08 03:03:24;;;;;;;0.82;0.30;;;;;;;9.61;100.00;95429.81;5066579;28;20040;-65
2021/10/08 03:05:51;;;;;;;0.60;0.40;;;;;;;9.51;100.00;95416.50;5078214;28;20818;-65
2021/10/08 03:08:17;;;;;;;1.15;0.68;;;;;;;9.65;100.00;95438.81;5063500;28;20482;-65
2021/10/08 03:10:44;;;;;;;0.80;0.40;;;;;;;9.70;100.00;95438.97;5081748;28;20044;-66
2021/10/08 03:13:11;;;;;;;1.05;0.40;;;;;;;9.58;100.00;95430.25;5081922;28;20710;-65
2021/10/08 03:15:39;;;;;;;0.70;0.50;;;;;;;9.58;100.00;95430.25;5063614;28;20078;-65
2021/10/08 03:18:05;;;;;;;0.85;0.55;;;;;;;9.55;100.00;95428.06;5063607;28;20509;-66
2021/10/08 03:20:32;;;;;;;0.90;0.60;;;;;;;9.61;100.00;95436.84;5081673;28;20070;-65
2021/10/08 03:22:59;;;;;;;5.80;1.10;;;;;;;9.55;100.00;95438.47;5084532;28;20110;-65
2021/10/08 03:25:27;;;;;;;1.40;0.57;;;;;;;9.58;100.00;95432.88;5077270;28;20163;-65
2021/10/08 03:27:54;;;;;;;3.38;1.02;;;;;;;9.57;100.00;95436.47;5080637;28;20416;-66
2021/10/08 03:30:21;;;;;;;0.47;0.30;;;;;;;9.53;100.00;95427.50;5048877;28;20047;-66
2021/10/08 03:32:48;;;;;;;0.63;0.50;;;;;;;9.38;100.00;95418.16;5075670;28;20047;-65
2021/10/08 03:35:15;;;;;;;0.60;0.40;;;;;;;9.40;100.00;95435.34;5081705;28;20433;-65
2021/10/08 03:40:11;;;;;;;1.50;0.75;;;;;;;9.37;100.00;95437.34;5075246;28;20051;-66
2021/10/08 03:42:39;;;;;;;6.95;0.60;;;;;;;9.28;100.00;95417.03;5066033;28;20413;-65
2021/10/08 03:45:12;;;;;;;1.25;0.73;;;;;;;9.35;100.00;95441.97;5070980;28;20040;-66
2021/10/08 03:50:27;;;;;;;1.92;0.85;;;;;;;9.40;100.00;95432.75;5059557;28;20052;-66
2021/10/08 03:52:54;;;;;;;0.80;0.60;;;;;;;9.44;100.00;95441.75;5069693;28;20040;-66
2021/10/08 03:55:20;;;;;;;0.77;0.57;;;;;;;9.43;100.00;95440.94;5092405;28;20500;-65
2021/10/08 03:57:47;;;;;;;0.88;0.45;;;;;;;9.51;100.00;95437.31;5072849;28;20044;-66
2021/10/08 04:00:15;;;;;;;1.00;0.70;;;;;;;9.55;100.00;95435.88;5095182;28;20044;-65
2021/10/08 04:02:41;;;;;;;1.52;1.05;;;;;;;9.55;100.00;95433.28;5100191;28;20459;-66
2021/10/08 04:05:12;;;;;;;0.82;0.75;;;;;;;9.52;100.00;95436.28;5065286;28;20131;-65
2021/10/08 04:07:40;;;;;;;1.27;0.73;;;;;;;9.58;100.00;95438.06;5066669;28;20047;-65
2021/10/08 04:10:07;;;;;;;1.15;0.75;;;;;;;9.52;100.00;95428.47;5068657;28;20044;-65
2021/10/08 04:12:34;;;;;;;2.22;0.90;;;;;;;9.62;100.00;95434.03;5079447;28;20047;-65
2021/10/08 04:15:03;;;;;;;2.30;0.63;;;;;;;9.57;100.00;95426.06;5087310;28;20089;-65
2021/10/08 04:17:30;;;;;;;14.45;1.58;;;;;;;9.58;100.00;95430.25;5067892;28;20054;-65
2021/10/08 04:19:56;;;;;;;6.30;2.75;;;;;;;9.61;100.00;95448.03;5081071;28;20129;-66
2021/10/08 04:22:23;;;;;;;3.42;0.77;;;;;;;9.55;100.00;95454.88;5105986;28;20039;-66
2021/10/08 04:24:50;;;;;;;5.40;1.17;;;;;;;9.54;100.00;95447.28;5104582;28;20108;-65
2021/10/08 04:27:17;;;;;;;1.50;0.63;;;;;;;9.57;100.00;95449.47;5078211;28;20721;-65
2021/10/08 04:29:44;;;;;;;4.82;1.67;;;;;;;9.31;100.00;95414.81;5091154;28;20051;-65
2021/10/08 04:32:11;;;;;;;9.63;1.05;;;;;;;9.55;100.00;95448.88;5083532;28;20055;-65
2021/10/08 04:34:38;;;;;;;2.95;1.83;;;;;;;9.52;100.00;95450.06;5084138;28;20047;-65
2021/10/08 04:37:06;;;;;;;4.15;1.10;;;;;;;9.53;100.00;95436.09;5080765;28;20076;-66
2021/10/08 04:39:34;;;;;;;5.97;1.20;;;;;;;9.55;100.00;95443.69;5074044;28;20090;-66
2021/10/08 04:42:03;;;;;;;2.20;1.02;;;;;;;9.62;100.00;95454.84;5068916;28;20040;-66
2021/10/08 04:44:32;;;;;;;11.00;2.33;;;;;;;9.62;100.00;95454.06;5098964;28;20040;-66
2021/10/08 04:47:00;;;;;;;0.98;0.60;;;;;;;9.59;100.00;95450.03;5087989;28;20522;-66
2021/10/08 04:49:27;;;;;;;1.80;0.85;;;;;;;9.53;100.00;95463.91;5079979;28;20436;-66
2021/10/08 04:51:54;;;;;;;1.15;1.05;;;;;;;9.54;100.00;95453.28;5075832;28;20051;-66
2021/10/08 04:54:21;;;;;;;1.38;0.60;;;;;;;9.60;100.00;95462.06;5096694;28;20044;-66
2021/10/08 04:56:48;;;;;;;7.72;0.75;;;;;;;9.62;100.00;95454.84;5069031;28;20055;-66
2021/10/08 04:59:15;;;;;;;5.88;1.65;;;;;;;9.58;100.00;95445.88;5086425;28;20126;-66
2021/10/08 05:01:42;;;;;;;3.40;1.88;;;;;;;9.67;100.00;95436.81;5077729;28;20044;-66
2021/10/08 05:04:09;;;;;;;3.53;2.33;;;;;;;9.72;100.00;95446.56;5100094;28;20036;-66
2021/10/08 05:06:37;;;;;;;2.00;1.42;;;;;;;9.74;100.00;95445.38;5072494;28;20448;-66
2021/10/08 05:09:03;;;;;;;1.75;1.38;;;;;;;9.75;100.00;95444.34;5087098;28;20092;-66
2021/10/08 05:11:30;;;;;;;3.38;1.52;;;;;;;9.72;100.00;95444.78;5107090;28;20512;-66
2021/10/08 05:13:57;;;;;;;1.50;1.02;;;;;;;9.73;100.00;95446.34;5083636;28;20050;-65
2021/10/08 05:16:24;;;;;;;1.52;0.75;;;;;;;9.74;100.00;95447.97;5097726;28;20509;-66
2021/10/08 05:18:52;;;;;;;1.83;1.20;;;;;;;9.82;100.00;95444.31;5083877;28;20116;-65
2021/10/08 05:21:22;;;;;;;1.10;0.68;;;;;;;9.80;100.00;95429.94;5080258;28;20059;-66
2021/10/08 05:23:50;;;;;;;1.35;1.05;;;;;;;9.82;100.00;95427.91;5082694;28;20043;-66
2021/10/08 05:26:17;;;;;;;1.30;0.95;;;;;;;9.89;100.00;95439.06;5087464;28;20126;-66
2021/10/08 05:28:43;;;;;;;3.53;2.90;;;;;;;9.86;100.00;95429.06;5080750;28;20044;-66
2021/10/08 05:31:10;;;;;;;4.53;3.17;;;;;;;9.87;100.00;95441.09;5080050;28;20051;-66
2021/10/08 05:33:38;;;;;;;11.73;8.25;;;;;;;9.83;100.00;95439.88;5067452;28;20043;-66
2021/10/08 05:36:06;;;;;;;16.65;11.23;;;;;;;9.84;100.00;95442.28;5082235;28;20132;-66
2021/10/08 05:38:33;;;;;;;8.23;6.28;;;;;;;9.82;100.00;95448.72;5089018;28;20047;-67
2021/10/08 05:41:00;;;;;;;6.30;4.15;;;;;;;9.80;100.00;95450.75;5105202;28;20039;-67
2021/10/08 05:43:28;;;;;;;6.40;5.22;;;;;;;9.82;100.00;95453.91;5068973;28;20047;-66
2021/10/08 05:45:58;;;;;;;5.95;4.47;;;;;;;9.86;100.00;95460.28;5088321;28;20039;-66
2021/10/08 05:48:25;;;;;;;4.70;3.25;;;;;;;9.85;100.00;95458.69;5088666;28;20592;-66
2021/10/08 05:50:52;;;;;;;3.95;3.30;;;;;;;9.84;100.00;95454.50;5085813;28;20046;-66
2021/10/08 05:53:20;;;;;;;2.92;1.92;;;;;;;9.84;100.00;95447.50;5078622;28;20086;-66
2021/10/08 05:55:47;;;;;;;3.58;2.58;;;;;;;9.79;100.00;95439.50;5060016;28;20582;-66
2021/10/08 05:58:13;;;;;;;5.03;3.03;;;;;;;9.75;100.00;95444.34;5091241;28;20130;-67
2021/10/08 06:00:40;;;;;;;8.45;4.70;;;;;;;9.80;100.00;95440.34;5084267;28;20044;-66
2021/10/08 06:03:07;;;;;;;5.25;3.83;;;;;;;9.80;100.00;95442.94;5067049;28;20050;-67
2021/10/08 06:05:38;;;;;;;3.47;2.30;;;;;;;9.74;100.00;95437.56;5086250;28;20119;-66
2021/10/08 06:08:07;;;;;;;3.35;2.58;;;;;;;9.62;100.00;95423.63;5067883;28;20461;-67
2021/10/08 06:10:41;;;;;;;3.95;1.83;;;;;;;9.73;100.00;95441.16;5081747;28;20100;-66
2021/10/08 06:13:09;;;;;;;3.47;2.40;;;;;;;9.74;100.00;95437.56;5076951;28;20516;-67
2021/10/08 06:15:37;;;;;;;3.92;2.30;;;;;;;9.73;100.00;95437.75;5082928;28;20377;-67
2021/10/08 06:18:04;;;;;;;4.65;2.55;;;;;;;9.76;100.00;95440.75;5070397;28;20109;-66
2021/10/08 06:20:33;;;;;;;4.50;3.03;;;;;;;9.61;100.00;95411.63;5075272;28;20045;-66
2021/10/08 06:23:02;;;;;;;4.45;3.22;;;;;;;9.65;100.00;95423.22;5095033;28;20044;-66
2021/10/08 06:25:29;;;;;;;6.03;2.97;;;;;;;9.75;100.00;95444.34;5087695;28;20086;-66
2021/10/08 06:28:00;;;;;;;5.60;3.58;;;;;;;9.77;100.00;95451.94;5080740;28;20062;-66
2021/10/08 06:30:30;;;;;;;6.22;4.30;;;;;;;9.81;100.00;95454.91;5083460;28;20039;-66
2021/10/08 06:32:57;;;;;;;3.05;2.30;;;;;;;9.71;100.00;95445.00;5090223;28;20043;-66
2021/10/08 06:35:24;;;;;;;4.22;2.72;;;;;;;9.64;100.00;95426.81;5067141;28;20424;-66
2021/10/08 06:37:53;;;;;;;6.40;4.22;;;;;;;9.69;100.00;95432.19;5074008;28;20043;-66
2021/10/08 06:40:22;;;;;;;4.43;3.45;;;;;;;9.70;100.00;95441.56;5081359;28;20075;-66
2021/10/08 06:42:50;;;;;;;3.78;2.53;;;;;;;9.60;100.00;95450.84;5087345;28;20043;-65
2021/10/08 06:45:34;;;;;;;2.33;1.60;;;;;;;9.67;100.00;95457.63;5082748;28;20043;-66
2021/10/08 06:48:03;;;;;;;5.03;2.60;;;;;;;9.59;100.00;95460.44;5086983;28;20488;-66
2021/10/08 06:50:33;;;;;;;4.95;2.22;;;;;;;9.62;100.00;95460.03;5078353;28;20548;-66
2021/10/08 06:53:01;;;;;;;4.18;2.40;;;;;;;9.45;100.00;95448.53;5074141;28;20146;-66
2021/10/08 06:55:28;;;;;;;3.78;1.83;;;;;;;9.59;100.00;95470.06;5065300;28;20055;-66
2021/10/08 06:57:56;;;;;;;4.88;2.55;;;;;;;9.61;100.00;95479.25;5064359;28;20052;-65
2021/10/08 07:00:23;;;;;;;3.50;1.92;;;;;;;9.64;100.00;95468.44;5081557;28;20055;-65
2021/10/08 07:02:54;;;;;;;2.55;1.67;;;;;;;9.59;100.00;95467.47;5086806;28;20082;-65
2021/10/08 07:05:26;;;;;;;3.15;1.30;;;;;;;9.72;100.00;95478.59;5085843;28;20047;-64
2021/10/08 07:07:55;;;;;;;2.80;1.27;;;;;;;9.79;100.00;95477.75;5086344;28;20044;-64
2021/10/08 07:10:24;;;;;;;5.35;1.48;;;;;;;9.80;100.00;95476.75;5087209;28;20054;-64
2021/10/08 07:12:51;;;;;;;2.97;1.50;;;;;;;9.88;100.00;95484.28;5085580;28;20074;-65
2021/10/08 07:15:18;;;;;;;2.55;1.58;;;;;;;9.91;100.00;95483.88;5089780;28;20040;-65
2021/10/08 07:17:49;;;;;;;2.35;1.27;;;;;;;9.87;100.00;95482.72;5097609;28;20436;-65
2021/10/08 07:20:22;;;;;;;1.80;1.30;;;;;;;9.79;100.00;95490.75;5085039;28;20062;-65
2021/10/08 07:22:49;;;;;;;1.60;1.10;;;;;;;9.80;100.00;95480.16;5086425;28;20500;-65
2021/10/08 07:25:16;;;;;;;1.63;1.08;;;;;;;9.88;100.00;95473.88;5086477;28;20051;-65
2021/10/08 07:27:46;;;;;;;2.13;1.17;;;;;;;9.77;100.00;95473.53;5085598;28;20036;-65
2021/10/08 07:30:14;;;;;;;4.40;1.83;;;;;;;9.89;100.00;95475.50;5100774;28;20050;-64
2021/10/08 07:32:41;;;;;;;1.77;1.35;;;;;;;9.76;100.00;95466.75;5096450;28;20048;-64
2021/10/08 07:35:09;;;;;;;0.77;0.60;;;;;;;9.83;100.00;95481.50;5093432;28;20101;-65
2021/10/08 07:37:37;;;;;;;3.53;0.45;;;;;;;9.90;100.00;95487.47;5088573;28;20071;-66
2021/10/08 07:40:06;;;;;;;1.92;1.10;;;;;;;9.82;100.00;95492.94;5093197;28;20138;-66
2021/10/08 07:42:34;;;;;;;9.20;4.50;;;;;;;9.75;100.00;95498.97;5103299;28;20093;-65
2021/10/08 07:45:04;;;;;;;9.32;5.25;;;;;;;9.71;100.00;95505.59;5095877;28;20405;-65
2021/10/08 07:47:31;;;;;;;10.70;5.30;;;;;;;9.63;100.00;95508.44;5090329;28;20036;-66
2021/10/08 07:49:58;;;;;;;7.93;4.25;;;;;;;9.62;100.00;95511.25;5080258;28;20044;-65
2021/10/08 07:52:25;;;;;;;5.93;3.10;;;;;;;9.56;100.00;95523.28;5090190;28;20063;-65
2021/10/08 07:54:52;;;;;;;8.68;4.70;;;;;;;9.56;100.00;95525.88;5084305;28;20052;-66
2021/10/08 07:57:19;;;;;;;8.30;4.78;;;;;;;9.61;100.00;95536.47;5089681;28;20101;-66
2021/10/08 07:59:46;;;;;;;4.40;2.15;;;;;;;9.49;100.00;95545.91;5098732;28;20051;-66
2021/10/08 08:02:12;;;;;;;6.88;4.07;;;;;;;9.54;100.00;95546.09;5108282;28;20053;-66
2021/10/08 08:04:39;;;;;;;4.80;2.83;;;;;;;9.59;100.00;95551.47;5087066;28;20581;-65
2021/10/08 08:07:06;;;;;;;3.83;2.58;;;;;;;9.51;100.00;95556.94;5088305;28;20572;-65
2021/10/08 08:09:33;;;;;;;3.75;1.98;;;;;;;9.48;100.00;95557.31;5096848;28;20044;-65
2021/10/08 08:12:00;;;;;;;2.53;1.70;;;;;;;9.45;100.00;95557.72;5108229;28;20039;-66
2021/10/08 08:14:26;;;;;;;2.42;1.33;;;;;;;9.41;100.00;95566.94;5082673;28;20039;-65
2021/10/08 08:16:53;;;;;;;2.30;1.58;;;;;;;9.42;100.00;95564.16;5087598;28;20117;-65
2021/10/08 08:19:20;;;;;;;8.10;4.40;;;;;;;9.35;100.00;95569.38;5088243;28;20779;-65
2021/10/08 08:21:47;;;;;;;6.57;2.20;;;;;;;9.34;100.00;95578.16;5091516;28;20073;-65
2021/10/08 08:24:13;;;;;;;2.63;1.90;;;;;;;9.36;100.00;95576.16;5102891;28;20043;-66
2021/10/08 08:26:40;;;;;;;3.38;2.38;;;;;;;9.34;100.00;95578.16;5086900;28;20424;-65
2021/10/08 08:29:07;;;;;;;3.80;2.33;;;;;;;9.36;100.00;95564.94;5089345;28;20059;-66
2021/10/08 08:31:34;;;;;;;2.83;1.88;;;;;;;9.45;100.00;95568.13;5068513;28;20101;-66
2021/10/08 08:34:00;;;;;;;4.93;2.47;;;;;;;9.47;100.00;95550.50;5088710;28;20048;-66
2021/10/08 08:36:30;;;;;;;3.53;2.42;;;;;;;9.58;100.00;95547.28;5085386;28;20491;-66
2021/10/08 08:39:02;;;;;;;2.85;1.65;;;;;;;9.50;100.00;95543.09;5080229;28;20394;-66
2021/10/08 08:41:29;;;;;;;2.30;1.52;;;;;;;9.57;100.00;95553.47;5099075;28;20051;-66
2021/10/08 08:44:00;;;;;;;2.85;2.35;;;;;;;9.53;100.00;95560.91;5090664;28;20040;-66
2021/10/08 08:46:27;;;;;;;1.45;1.08;;;;;;;9.52;100.00;95563.69;5095948;28;20046;-66
2021/10/08 08:48:54;;;;;;;1.52;0.75;;;;;;;9.53;100.00;95571.31;5088960;28;20509;-65
2021/10/08 08:51:25;;;;;;;1.70;1.38;;;;;;;9.46;100.00;95574.94;5091477;28;20116;-65
2021/10/08 08:53:53;;;;;;;3.47;2.55;;;;;;;9.52;100.00;95585.28;5099963;28;20035;-66
2021/10/08 08:56:20;;;;;;;2.35;2.08;;;;;;;9.58;100.00;95586.31;5068505;28;20047;-66
2021/10/08 08:58:47;;;;;;;3.65;2.35;;;;;;;9.60;100.00;95581.69;5088066;28;20097;-66
2021/10/08 09:01:14;;;;;;;3.85;2.63;;;;;;;9.57;100.00;95582.09;5092304;28;20552;-66
2021/10/08 09:04:07;;;;;;;3.50;1.25;;;;;;;9.67;100.00;95592.88;5095670;28;20040;-66
2021/10/08 09:06:39;;;;;;;4.07;3.30;;;;;;;9.58;100.00;95586.31;5099131;28;20063;-66
2021/10/08 09:09:15;;;;;;;2.10;1.48;;;;;;;9.51;100.00;95581.13;5098760;28;20036;-66
2021/10/08 09:11:43;;;;;;;1.38;0.80;;;;;;;9.49;100.00;95571.91;5088003;28;20043;-66
2021/10/08 09:14:21;;;;;;;1.88;1.13;;;;;;;9.53;100.00;95571.31;5100973;28;20051;-66
2021/10/08 09:17:11;;;;;;;1.30;0.90;;;;;;;9.55;100.00;95568.50;5105855;28;20048;-66
2021/10/08 09:19:47;;;;;;;1.52;0.98;;;;;;;9.56;100.00;95570.06;5106856;28;20070;-66
2021/10/08 09:22:19;;;;;;;3.90;1.58;;;;;;;9.48;100.00;95567.72;5106467;28;20043;-65
2021/10/08 09:24:46;;;;;;;4.07;2.03;;;;;;;9.35;100.00;95565.97;5094253;28;20044;-66
2021/10/08 09:27:16;;;;;;;2.90;1.40;;;;;;;9.43;100.00;95570.94;5093822;28;20105;-66
2021/10/08 09:29:51;;;;;;;4.15;2.20;;;;;;;9.45;100.00;95571.53;5098754;28;20060;-66
2021/10/08 09:32:20;;;;;;;3.13;1.73;;;;;;;9.48;100.00;95557.31;5093604;28;20517;-66
2021/10/08 09:34:48;;;;;;;2.45;1.23;;;;;;;9.55;100.00;95571.09;5086958;28;20039;-65
2021/10/08 09:37:16;;;;;;;1.25;0.95;;;;;;;9.57;100.00;95576.88;5067401;28;20059;-66
2021/10/08 09:39:51;;;;;;;1.13;0.82;;;;;;;9.55;100.00;95584.91;5092568;28;20050;-65
2021/10/08 09:42:20;;;;;;;3.25;1.80;;;;;;;9.54;100.00;95583.31;5077377;28;20051;-66
2021/10/08 09:44:49;;;;;;;2.92;1.52;;;;;;;9.54;100.00;95577.28;5089448;28;20444;-67
2021/10/08 09:47:20;;;;;;;1.20;0.70;;;;;;;9.50;100.00;95581.31;5089426;28;20052;-67
2021/10/08 09:49:49;;;;;;;1.80;1.30;;;;;;;9.50;100.00;95584.72;5102108;28;20040;-65
2021/10/08 09:52:30;;;;;;;3.08;1.50;;;;;;;9.48;100.00;95593.72;5095933;28;20043;-66
2021/10/08 09:55:03;;;;;;;1.70;1.05;;;;;;;9.50;100.00;95597.72;5095027;28;20505;-65
2021/10/08 09:57:59;;;;;;;1.58;1.00;;;;;;;9.45;100.00;95583.72;5085237;28;20059;-64
2021/10/08 10:00:40;;;;;;;2.55;1.42;;;;;;;9.52;100.00;95597.50;5094722;28;20093;-67
2021/10/08 10:03:09;;;;;;;5.82;2.70;;;;;;;9.45;100.00;95599.31;5092334;28;20062;-66
2021/10/08 10:05:37;;;;;;;2.53;1.45;;;;;;;9.56;100.00;95596.91;5098214;28;20036;-65
2021/10/08 10:08:05;;;;;;;2.22;1.58;;;;;;;9.60;100.00;95589.50;5099348;28;20073;-65
2021/10/08 10:10:34;;;;;;;3.85;2.70;;;;;;;9.57;100.00;95595.09;5089548;28;20047;-64
2021/10/08 10:13:04;;;;;;;1.30;0.90;;;;;;;9.63;100.00;95596.88;5088782;28;20539;-64
2021/10/08 10:15:34;;;;;;;8.18;4.97;;;;;;;9.61;100.00;95588.47;5094118;28;20047;-64
2021/10/08 10:18:05;;;;;;;81.63;40.70;;;;;;;9.68;100.00;95589.25;5101268;28;22833;-64
2021/10/08 10:20:34;;;;;;;12.80;7.60;;;;;;;9.82;100.00;95590.00;5091505;28;20531;-65
2021/10/08 10:23:05;;;;;;;4.80;3.47;;;;;;;9.92;100.00;95584.34;5072470;28;20059;-65
2021/10/08 10:25:34;;;;;;;5.43;2.42;;;;;;;9.85;100.00;95583.56;5077122;28;20039;-64
2021/10/08 10:28:03;;;;;;;1.95;1.33;;;;;;;9.90;100.00;95575.94;5038020;28;20571;-65
2021/10/08 10:30:30;;;;;;;3.13;1.65;;;;;;;9.90;100.00;95561.16;5102682;28;20067;-64
2021/10/08 10:32:58;;;;;;;3.03;2.10;;;;;;;9.86;100.00;95553.97;5101986;28;20027;-65
2021/10/08 10:35:44;;;;;;;3.85;2.28;;;;;;;9.90;100.00;95539.50;5086692;28;20040;-64
2021/10/08 10:38:20;;;;;;;3.70;2.28;;;;;;;9.87;100.00;95524.34;5084207;28;20048;-64
2021/10/08 10:40:47;;;;;;;9.38;2.50;;;;;;;9.90;100.00;95503.91;5087118;28;20036;-64
2021/10/08 10:43:14;;;;;;;4.57;2.20;;;;;;;9.81;100.00;95480.94;5095598;28;20043;-64
2021/10/08 10:46:06;;;;;;;3.00;1.42;;;;;;;9.86;100.00;95465.50;5068916;28;20047;-65
2021/10/08 10:48:44;;;;;;;10.40;3.33;;;;;;;9.79;100.00;95475.16;5075797;28;20044;-65
2021/10/08 10:51:14;;;;;;;;;;;;;;;9.74;100.00;95497.38;5088847;28;20063;-65
2021/10/08 10:53:50;;;;;;;6.40;3.13;;;;;;;9.62;100.00;95496.44;5084001;28;19924;-65
2021/10/08 10:56:36;;;;;;;13.68;9.27;;;;;;;9.76;100.00;95508.38;5080946;28;20036;-65
2021/10/08 10:59:25;;;;;;;14.10;6.32;;;;;;;9.73;100.00;95502.78;5087638;28;20059;-65
2021/10/08 11:02:15;;;;;;;4.95;2.25;;;;;;;9.79;100.00;95511.56;5074349;28;20436;-65
2021/10/08 11:04:49;;;;;;;1.67;1.13;;;;;;;9.86;100.00;95515.72;5088011;28;20054;-65
2021/10/08 11:07:18;;;;;;;2.10;1.30;;;;;;;9.97;100.00;95514.25;5088176;28;20512;-64
2021/10/08 11:10:06;;;;;;;3.35;1.13;;;;;;;10.09;100.00;95517.78;5085495;28;20039;-65
2021/10/08 11:12:41;;;;;;;1.67;0.65;;;;;;;10.12;100.00;95521.78;5057353;28;20063;-64
2021/10/08 11:15:20;;;;;;;1.60;0.40;;;;;;;10.07;100.00;95525.00;5085502;28;20139;-65
2021/10/08 11:17:55;;;;;;;2.88;1.00;;;;;;;10.00;100.00;95524.25;5088918;28;20048;-64
2021/10/08 11:20:25;;;;;;;7.45;3.17;;;;;;;10.12;100.00;95527.00;5088291;28;20059;-64
2021/10/08 11:22:56;;;;;;;8.65;4.35;;;;;;;10.11;100.00;95530.59;5091096;28;20488;-65
2021/10/08 11:25:48;;;;;;;38.17;19.98;;;;;;;10.14;100.00;95525.75;5089101;28;20105;-65
2021/10/08 11:28:15;;;;;;;12.65;7.13;;;;;;;10.04;100.00;95525.41;5089211;28;20152;-63
2021/10/08 11:30:42;;;;;;;2.80;1.90;;;;;;;10.11;100.00;95526.16;5084414;28;20044;-64
2021/10/08 11:33:09;;;;;;;3.33;1.42;;;;;;;10.13;100.00;95534.56;5088608;28;20036;-64
2021/10/08 11:35:38;;;;;;;3.92;1.95;;;;;;;10.27;100.00;95524.88;5086468;28;20052;-64
2021/10/08 11:38:05;;;;;;;5.32;3.42;;;;;;;10.33;100.00;95528.47;5090295;28;20528;-64
2021/10/08 11:40:43;;;;;;;3.20;1.15;;;;;;;10.26;100.00;95528.50;5089544;28;20051;-65
2021/10/08 11:43:29;;;;;;;17.17;6.32;;;;;;;10.26;100.00;95532.88;5088851;28;20052;-65
2021/10/08 11:46:14;;;;;;;13.18;6.28;;;;;;;10.22;100.00;95526.50;5086121;28;20044;-65